Spirit Of Shanghai — 9V2499 — position and weather

sailwx.info

Track history (hours):
 
Tides and Currents Weather Stations Pressure Air Temp Water Temp Dewpoint Dewpoint Depression Visibility Wind Speed Wind Dir Waves Ship Positions

Spirit Of Shanghai

Last reported at 2018-Mar-07 20:49 UTC. Time now 2018-Jun-20 09:43 UTC.
Position S 37°40' E 176°11'.
Warning: this ship's position is months out of date.

Length 254 m; draft 10.8 m.

Type: Ship (hazmat cat A). MMSI: 564067000.

Date/timePositionNaut miles runAvg speedWind from/ knotsBaromVisibWave heightAir tempDewpointWater temp
2018-Mar-07 20:49S 37°40' E 176°11'0 0.0
2018-Mar-07 20:28S 37°40' E 176°11'0 0.0
2018-Mar-07 19:58S 37°40' E 176°11'0 0.0
2018-Mar-07 19:28S 37°40' E 176°11'0 0.0
2018-Mar-07 18:58S 37°40' E 176°11'0 0.0
2018-Mar-07 18:28S 37°40' E 176°11'0 0.0
2018-Mar-07 17:58S 37°40' E 176°11'1 2.0
2018-Mar-07 17:30S 37°39' E 176°11'4 9.0
2018-Mar-07 17:00S 37°35' E 176°14'  
2018-Mar-05 12:53S 41°01' E 176°28'  
2018-Mar-02 07:09S 46°40' E 169°30'211.3
2018-Mar-02 07:00S 46°40' E 169°28'811.2
2018-Mar-02 06:19S 46°43' E 169°17'411.4
2018-Mar-02 06:00S 46°44' E 169°12'611.5
2018-Mar-02 05:27S 46°45' E 169°03'511.3
2018-Mar-02 05:00S 46°45' E 168°56'611.5
2018-Mar-02 04:30S 46°43' E 168°48'610.8
2018-Mar-02 03:55S 46°41' E 168°39'511.1
2018-Mar-02 03:30S 46°41' E 168°32'611.3
2018-Mar-02 03:00S 46°42' E 168°24'611.4
2018-Mar-02 02:30S 46°41' E 168°16'611.5
2018-Mar-02 02:00S 46°39' E 168°08'611.9
2018-Mar-02 01:29S 46°36' E 168°00'611.9
2018-Mar-02 01:00S 46°34' E 167°53'611.5
2018-Mar-02 00:30S 46°31' E 167°45'611.3
2018-Mar-02 00:00S 46°30' E 167°37'510.9
2018-Mar-01 23:30S 46°30' E 167°29'511.0
2018-Mar-01 23:00S 46°29' E 167°21'611.8
2018-Mar-01 22:30S 46°28' E 167°13'611.5
2018-Mar-01 22:00S 46°28' E 167°04'510.8
2018-Mar-01 21:30S 46°27' E 166°56'611.3
2018-Mar-01 20:59S 46°27' E 166°48'611.4
2018-Mar-01 20:27S 46°25' E 166°39'511.1
2018-Mar-01 20:00S 46°24' E 166°32'611.2
2018-Mar-01 19:29S 46°24' E 166°24'510.9
2018-Mar-01 19:00S 46°24' E 166°16'610.8
2018-Mar-01 18:30S 46°24' E 166°08'710.2
2018-Mar-01 17:50S 46°23' E 165°58'  
2018-Feb-26 19:07S 40°44' E 148°20'611.8
2018-Feb-26 18:37S 40°42' E 148°13'311.0
2018-Feb-26 18:20S 40°41' E 148°09'310.4
2018-Feb-26 18:00S 40°39' E 148°05'611.1
2018-Feb-26 17:31S 40°37' E 147°58'612.0
2018-Feb-26 17:00S 40°33' E 147°52'612.7
2018-Feb-26 16:31S 40°29' E 147°46'612.9
2018-Feb-26 16:00S 40°25' E 147°39'613.0
2018-Feb-26 15:31S 40°20' E 147°33'713.0
2018-Feb-26 15:01S 40°16' E 147°26'713.0
2018-Feb-26 14:31S 40°12' E 147°20'713.0
2018-Feb-26 13:58S 40°08' E 147°13'612.9
2018-Feb-26 13:30S 40°04' E 147°07'612.9
2018-Feb-26 13:00S 39°60' E 147°00'712.9
2018-Feb-26 12:28S 39°55' E 146°53'  
Track history (hours):
 
Tides and Currents Weather Stations Pressure Air Temp Water Temp Dewpoint Dewpoint Depression Visibility Wind Speed Wind Dir Waves Ship Positions

Spirit Of Shanghai

Last reported at 2018-Mar-07 20:49 UTC. Time now 2018-Jun-20 09:43 UTC.
Position S 37°40' E 176°11'.
Warning: this ship's position is months out of date.

Length 254 m; draft 10.8 m.

Type: Ship (hazmat cat A). MMSI: 564067000.

Date/timePositionNaut miles runAvg speedWind from/ knotsBaromVisibWave heightAir tempDewpointWater temp
2018-Mar-07 20:49S 37°40' E 176°11'0 0.0
2018-Mar-07 20:28S 37°40' E 176°11'0 0.0
2018-Mar-07 19:58S 37°40' E 176°11'0 0.0
2018-Mar-07 19:28S 37°40' E 176°11'0 0.0
2018-Mar-07 18:58S 37°40' E 176°11'0 0.0
2018-Mar-07 18:28S 37°40' E 176°11'0 0.0
2018-Mar-07 17:58S 37°40' E 176°11'1 2.0
2018-Mar-07 17:30S 37°39' E 176°11'4 9.0
2018-Mar-07 17:00S 37°35' E 176°14'  
2018-Mar-05 12:53S 41°01' E 176°28'  
2018-Mar-02 07:09S 46°40' E 169°30'211.3
2018-Mar-02 07:00S 46°40' E 169°28'811.2
2018-Mar-02 06:19S 46°43' E 169°17'411.4
2018-Mar-02 06:00S 46°44' E 169°12'611.5
2018-Mar-02 05:27S 46°45' E 169°03'511.3
2018-Mar-02 05:00S 46°45' E 168°56'611.5
2018-Mar-02 04:30S 46°43' E 168°48'610.8
2018-Mar-02 03:55S 46°41' E 168°39'511.1
2018-Mar-02 03:30S 46°41' E 168°32'611.3
2018-Mar-02 03:00S 46°42' E 168°24'611.4
2018-Mar-02 02:30S 46°41' E 168°16'611.5
2018-Mar-02 02:00S 46°39' E 168°08'611.9
2018-Mar-02 01:29S 46°36' E 168°00'611.9
2018-Mar-02 01:00S 46°34' E 167°53'611.5
2018-Mar-02 00:30S 46°31' E 167°45'611.3
2018-Mar-02 00:00S 46°30' E 167°37'510.9
2018-Mar-01 23:30S 46°30' E 167°29'511.0
2018-Mar-01 23:00S 46°29' E 167°21'611.8
2018-Mar-01 22:30S 46°28' E 167°13'611.5
2018-Mar-01 22:00S 46°28' E 167°04'510.8
2018-Mar-01 21:30S 46°27' E 166°56'611.3
2018-Mar-01 20:59S 46°27' E 166°48'611.4
2018-Mar-01 20:27S 46°25' E 166°39'511.1
2018-Mar-01 20:00S 46°24' E 166°32'611.2
2018-Mar-01 19:29S 46°24' E 166°24'510.9
2018-Mar-01 19:00S 46°24' E 166°16'610.8
2018-Mar-01 18:30S 46°24' E 166°08'710.2
2018-Mar-01 17:50S 46°23' E 165°58'  
2018-Feb-26 19:07S 40°44' E 148°20'611.8
2018-Feb-26 18:37S 40°42' E 148°13'311.0
2018-Feb-26 18:20S 40°41' E 148°09'310.4
2018-Feb-26 18:00S 40°39' E 148°05'611.1
2018-Feb-26 17:31S 40°37' E 147°58'612.0
2018-Feb-26 17:00S 40°33' E 147°52'612.7
2018-Feb-26 16:31S 40°29' E 147°46'612.9
2018-Feb-26 16:00S 40°25' E 147°39'613.0
2018-Feb-26 15:31S 40°20' E 147°33'713.0
2018-Feb-26 15:01S 40°16' E 147°26'713.0
2018-Feb-26 14:31S 40°12' E 147°20'713.0
2018-Feb-26 13:58S 40°08' E 147°13'612.9
2018-Feb-26 13:30S 40°04' E 147°07'612.9
2018-Feb-26 13:00S 39°60' E 147°00'712.9
2018-Feb-26 12:28S 39°55' E 146°53'  

Dump ship's entire track history